Koukla — WCY6739 — position and weather

sailwx.info

Track history (hours):
 
Tides and Currents Weather Stations Pressure Air Temp Water Temp Dewpoint Dewpoint Depression Visibility Wind Speed Wind Dir Waves Ship Positions

Koukla

Owner: COWAN III, HORATIO C, ROCKLAND, ME. More information available from US FCC via Universal Licensing System and Coast Guard Vessel Documentation Center.

Last reported at 2018-Jun-01 22:20 UTC. Time now 2018-Jun-19 20:20 UTC.
Position N 42°19' W 070°54'.
Warning: this ship's position is 17 days out of date.

Length 21 m.

Type: Sailing vessel. MMSI: 367366310.

Date/timePositionNaut miles runAvg speedWind from/ knotsBaromVisibWave heightAir tempDewpointWater temp
2018-Jun-01 22:20N 42°19' W 070°54'1 2.9
2018-Jun-01 21:58N 42°18' W 070°55'3 0.1
2018-May-31 00:41N 42°16' W 070°56'3 2.9
2018-May-30 23:42N 42°19' W 070°55'10 3.9
2018-May-30 21:08N 42°25' W 070°45'1 5.0
2018-May-30 20:52N 42°26' W 070°44'2 5.4
2018-May-30 20:25N 42°28' W 070°41'3 6.4
2018-May-30 20:00N 42°29' W 070°38'4 7.1
2018-May-30 19:30N 42°32' W 070°35'4 7.1
2018-May-30 18:59N 42°34' W 070°31'3 6.9
2018-May-30 18:30N 42°37' W 070°29'3 5.9
2018-May-30 18:00N 42°40' W 070°28'105 4.1
2018-May-29 16:24N 44°04' W 069°01'2 2.9
2018-May-29 15:53N 44°05' W 069°01'0 0.7
2018-May-29 15:28N 44°05' W 069°02'0 1.0
2018-May-29 15:00N 44°06' W 069°01'1 2.8
2018-May-29 14:30N 44°07' W 068°60'1 2.2
2018-May-29 14:00N 44°07' W 069°01'1 2.2
2018-May-29 13:30N 44°07' W 069°03'1 1.2
2018-May-29 12:59N 44°06' W 069°03'0 0.8
2018-May-29 12:29N 44°06' W 069°04'1 0.0
2018-May-27 18:21N 44°06' W 069°05'1 3.5
2018-May-27 18:00N 44°07' W 069°04'1 2.2
2018-May-27 17:26N 44°06' W 069°05'  
Track history (hours):
 
Tides and Currents Weather Stations Pressure Air Temp Water Temp Dewpoint Dewpoint Depression Visibility Wind Speed Wind Dir Waves Ship Positions

Koukla

Owner: COWAN III, HORATIO C, ROCKLAND, ME. More information available from US FCC via Universal Licensing System and Coast Guard Vessel Documentation Center.

Last reported at 2018-Jun-01 22:20 UTC. Time now 2018-Jun-19 20:20 UTC.
Position N 42°19' W 070°54'.
Warning: this ship's position is 17 days out of date.

Length 21 m.

Type: Sailing vessel. MMSI: 367366310.

Date/timePositionNaut miles runAvg speedWind from/ knotsBaromVisibWave heightAir tempDewpointWater temp
2018-Jun-01 22:20N 42°19' W 070°54'1 2.9
2018-Jun-01 21:58N 42°18' W 070°55'3 0.1
2018-May-31 00:41N 42°16' W 070°56'3 2.9
2018-May-30 23:42N 42°19' W 070°55'10 3.9
2018-May-30 21:08N 42°25' W 070°45'1 5.0
2018-May-30 20:52N 42°26' W 070°44'2 5.4
2018-May-30 20:25N 42°28' W 070°41'3 6.4
2018-May-30 20:00N 42°29' W 070°38'4 7.1
2018-May-30 19:30N 42°32' W 070°35'4 7.1
2018-May-30 18:59N 42°34' W 070°31'3 6.9
2018-May-30 18:30N 42°37' W 070°29'3 5.9
2018-May-30 18:00N 42°40' W 070°28'105 4.1
2018-May-29 16:24N 44°04' W 069°01'2 2.9
2018-May-29 15:53N 44°05' W 069°01'0 0.7
2018-May-29 15:28N 44°05' W 069°02'0 1.0
2018-May-29 15:00N 44°06' W 069°01'1 2.8
2018-May-29 14:30N 44°07' W 068°60'1 2.2
2018-May-29 14:00N 44°07' W 069°01'1 2.2
2018-May-29 13:30N 44°07' W 069°03'1 1.2
2018-May-29 12:59N 44°06' W 069°03'0 0.8
2018-May-29 12:29N 44°06' W 069°04'1 0.0
2018-May-27 18:21N 44°06' W 069°05'1 3.5
2018-May-27 18:00N 44°07' W 069°04'1 2.2
2018-May-27 17:26N 44°06' W 069°05'  

Dump ship's entire track history